Time;durP1;ratioP1;P1;durP2;ratioP2;P2;SDS_P1;SDS_P2;PMS_P1;PMS_P2;Temp;Humidity;BMP_temperature;BMP_pressure;BME280_temperature;BME280_humidity;BME280_pressure;Samples;Min_cycle;Max_cycle;Signal;HPM_P1;HPM_P2
2023/10/24 00:01:41;;;;;;;2.15;1.10;;;;;;;;;;5120782;28;20044;-69
2023/10/24 00:04:07;;;;;;;1.75;1.00;;;;;;;;;;5120559;28;20244;-69
2023/10/24 00:06:34;;;;;;;1.90;0.98;;;;;;;;;;5120489;28;20047;-68
2023/10/24 00:09:04;;;;;;;2.28;1.15;;;;;;;;;;5120378;28;20059;-68
2023/10/24 00:11:32;;;;;;;2.70;1.20;;;;;;;;;;5120393;28;20043;-69
2023/10/24 00:13:59;;;;;;;3.15;1.20;;;;;;;;;;5120359;28;20046;-69
2023/10/24 00:16:26;;;;;;;2.78;1.40;;;;;;;;;;5119935;28;20051;-69
2023/10/24 00:18:52;;;;;;;3.13;1.30;;;;;;;;;;5120176;28;20048;-69
2023/10/24 00:21:19;;;;;;;2.72;1.38;;;;;;;;;;5119803;28;20043;-69
2023/10/24 00:23:46;;;;;;;4.13;1.38;;;;;;;;;;5102068;28;20052;-69
2023/10/24 00:26:12;;;;;;;3.35;1.27;;;;;;;;;;5120047;28;20050;-68
2023/10/24 00:28:39;;;;;;;2.70;1.20;;;;;;;;;;5120153;28;20064;-69
2023/10/24 00:31:07;;;;;;;2.83;1.20;;;;;;;;;;5120100;28;20118;-69
2023/10/24 00:33:35;;;;;;;4.25;1.40;;;;;;;;;;5120572;28;20074;-69
2023/10/24 00:36:01;;;;;;;2.67;1.30;;;;;;;;;;5119895;28;20429;-69
2023/10/24 00:38:28;;;;;;;2.10;1.10;;;;;;;;;;5119681;28;20106;-69
2023/10/24 00:40:55;;;;;;;2.17;1.27;;;;;;;;;;5119976;28;20043;-69
2023/10/24 00:43:21;;;;;;;2.33;1.20;;;;;;;;;;5120129;28;20330;-68
2023/10/24 00:45:48;;;;;;;3.47;1.35;;;;;;;;;;5120088;28;20043;-68
2023/10/24 00:48:15;;;;;;;3.55;1.20;;;;;;;;;;5120140;28;20059;-69
2023/10/24 00:50:42;;;;;;;2.72;1.25;;;;;;;;;;5119502;28;20355;-69
2023/10/24 00:53:09;;;;;;;3.75;1.25;;;;;;;;;;5119447;28;20066;-69
2023/10/24 00:55:38;;;;;;;3.72;1.50;;;;;;;;;;5120141;28;20050;-68
2023/10/24 00:58:07;;;;;;;3.65;1.20;;;;;;;;;;5120140;28;20111;-69
2023/10/24 01:00:34;;;;;;;2.50;1.25;;;;;;;;;;5102166;28;20044;-68
2023/10/24 01:03:02;;;;;;;3.38;1.45;;;;;;;;;;5120204;28;20088;-69
2023/10/24 01:05:30;;;;;;;3.67;1.67;;;;;;;;;;5119883;28;20050;-69
2023/10/24 01:07:57;;;;;;;2.30;1.30;;;;;;;;;;5119995;28;20054;-68
2023/10/24 01:10:24;;;;;;;2.47;1.35;;;;;;;;;;5119612;28;20102;-69
2023/10/24 01:12:50;;;;;;;2.28;1.10;;;;;;;;;;5119938;28;20249;-69
2023/10/24 01:15:17;;;;;;;2.63;1.38;;;;;;;;;;5119734;28;20274;-69
2023/10/24 01:17:48;;;;;;;2.70;1.20;;;;;;;;;;5119735;28;20075;-68
2023/10/24 01:20:16;;;;;;;2.67;1.27;;;;;;;;;;5119923;28;20089;-69
2023/10/24 01:22:46;;;;;;;2.15;1.08;;;;;;;;;;5119187;28;20043;-69
2023/10/24 01:25:14;;;;;;;;;;;;;;;;;;5120144;28;20052;-69
2023/10/24 01:27:43;;;;;;;2.47;1.10;;;;;;;;;;5116935;28;20196;-68
2023/10/24 01:30:11;;;;;;;4.47;1.15;;;;;;;;;;5121213;28;20043;-68
2023/10/24 01:32:41;;;;;;;3.65;1.35;;;;;;;;;;5123245;28;20407;-69
2023/10/24 01:35:09;;;;;;;1.55;0.95;;;;;;;;;;5123340;28;20047;-70
2023/10/24 01:37:36;;;;;;;2.65;1.23;;;;;;;;;;5123264;28;20047;-68
2023/10/24 01:40:04;;;;;;;2.22;1.20;;;;;;;;;;5123227;28;20043;-68
2023/10/24 01:42:31;;;;;;;3.17;1.10;;;;;;;;;;5123198;28;20043;-69
2023/10/24 01:44:58;;;;;;;2.78;1.30;;;;;;;;;;5123122;28;20047;-68
2023/10/24 01:47:24;;;;;;;3.88;1.20;;;;;;;;;;5122755;28;20344;-69
2023/10/24 01:49:51;;;;;;;2.88;1.00;;;;;;;;;;5122875;28;20043;-69
2023/10/24 01:52:17;;;;;;;2.63;1.13;;;;;;;;;;5122594;28;20530;-68
2023/10/24 01:54:44;;;;;;;3.28;1.20;;;;;;;;;;5122674;28;20070;-68
2023/10/24 01:57:14;;;;;;;3.63;0.90;;;;;;;;;;5122860;28;20114;-70
2023/10/24 01:59:41;;;;;;;3.72;1.23;;;;;;;;;;5122966;28;20358;-69
2023/10/24 02:02:08;;;;;;;1.25;0.68;;;;;;;;;;5122760;28;20044;-68
2023/10/24 02:04:35;;;;;;;2.05;0.80;;;;;;;;;;5122666;28;20089;-69
2023/10/24 02:07:02;;;;;;;1.60;0.70;;;;;;;;;;5122593;28;20082;-69
2023/10/24 02:09:31;;;;;;;1.73;0.82;;;;;;;;;;5122292;28;20062;-68
2023/10/24 02:12:02;;;;;;;1.30;0.63;;;;;;;;;;5122446;28;20070;-69
2023/10/24 02:14:29;;;;;;;2.55;0.70;;;;;;;;;;5122623;28;20050;-69
2023/10/24 02:16:56;;;;;;;1.38;0.60;;;;;;;;;;5122422;28;20067;-69
2023/10/24 02:19:23;;;;;;;3.20;0.60;;;;;;;;;;5122341;28;20043;-69
2023/10/24 02:21:50;;;;;;;1.33;0.70;;;;;;;;;;5122085;28;20047;-70
2023/10/24 02:24:17;;;;;;;1.52;0.70;;;;;;;;;;5122030;28;20266;-69
2023/10/24 02:26:43;;;;;;;2.25;0.60;;;;;;;;;;5122230;28;20251;-70
2023/10/24 02:29:10;;;;;;;1.35;0.70;;;;;;;;;;5122187;28;20079;-72
2023/10/24 02:31:36;;;;;;;1.15;0.60;;;;;;;;;;5122375;28;20047;-70
2023/10/24 02:34:03;;;;;;;1.58;0.65;;;;;;;;;;5122167;28;20073;-70
2023/10/24 02:36:30;;;;;;;1.92;0.70;;;;;;;;;;5122049;28;20043;-69
2023/10/24 02:38:57;;;;;;;1.42;0.60;;;;;;;;;;5121609;28;20043;-69
2023/10/24 02:41:23;;;;;;;2.70;0.85;;;;;;;;;;5122202;28;20069;-69
2023/10/24 02:43:50;;;;;;;0.98;0.60;;;;;;;;;;5122204;28;20107;-70
2023/10/24 02:46:17;;;;;;;1.63;0.57;;;;;;;;;;5121832;28;20047;-69
2023/10/24 02:48:44;;;;;;;2.70;0.60;;;;;;;;;;5122020;28;20047;-69
2023/10/24 02:51:10;;;;;;;1.10;0.70;;;;;;;;;;5121695;28;20096;-69
2023/10/24 02:53:37;;;;;;;1.13;0.50;;;;;;;;;;5103209;28;20069;-69
2023/10/24 02:56:04;;;;;;;1.38;0.60;;;;;;;;;;5121626;28;20043;-70
2023/10/24 02:58:31;;;;;;;1.00;0.52;;;;;;;;;;5121551;28;20395;-70
2023/10/24 03:01:05;;;;;;;2.55;0.60;;;;;;;;;;5121686;28;20282;-68
2023/10/24 03:03:32;;;;;;;0.57;0.50;;;;;;;;;;5121483;28;20503;-69
2023/10/24 03:05:59;;;;;;;0.93;0.52;;;;;;;;;;5121825;28;20127;-69
2023/10/24 03:08:26;;;;;;;1.25;0.70;;;;;;;;;;5121191;28;20050;-69
2023/10/24 03:10:53;;;;;;;2.45;0.50;;;;;;;;;;5120238;28;20106;-69
2023/10/24 03:13:20;;;;;;;1.55;0.60;;;;;;;;;;5103000;28;20372;-69
2023/10/24 03:15:46;;;;;;;0.80;0.47;;;;;;;;;;5121265;28;20047;-69
2023/10/24 03:18:13;;;;;;;1.13;0.40;;;;;;;;;;5121075;28;20108;-69
2023/10/24 03:20:40;;;;;;;0.93;0.45;;;;;;;;;;5103257;28;20044;-69
2023/10/24 03:23:09;;;;;;;0.50;0.38;;;;;;;;;;5120656;28;20043;-69
2023/10/24 03:25:40;;;;;;;0.80;0.60;;;;;;;;;;5121256;28;20043;-72
2023/10/24 03:28:07;;;;;;;0.43;0.40;;;;;;;;;;5120896;28;20050;-69
2023/10/24 03:30:34;;;;;;;0.57;0.40;;;;;;;;;;5121117;28;20278;-70
2023/10/24 03:33:00;;;;;;;0.73;0.40;;;;;;;;;;5120899;28;20047;-69
2023/10/24 03:35:27;;;;;;;1.60;0.57;;;;;;;;;;5121046;28;20043;-69
2023/10/24 03:37:53;;;;;;;1.58;0.50;;;;;;;;;;5120736;28;20044;-69
2023/10/24 03:40:23;;;;;;;0.40;0.40;;;;;;;;;;5120457;28;20051;-69
2023/10/24 03:42:49;;;;;;;0.63;0.40;;;;;;;;;;5121139;28;20055;-71
2023/10/24 03:45:16;;;;;;;0.70;0.40;;;;;;;;;;5120900;28;20043;-69
2023/10/24 03:47:43;;;;;;;0.80;0.50;;;;;;;;;;5120869;28;20075;-68
2023/10/24 03:50:10;;;;;;;0.50;0.30;;;;;;;;;;5120483;28;20109;-68
2023/10/24 03:52:36;;;;;;;0.50;0.40;;;;;;;;;;5119976;28;20047;-69
2023/10/24 03:55:04;;;;;;;1.02;0.40;;;;;;;;;;5120287;28;20043;-69
2023/10/24 03:57:31;;;;;;;0.45;0.45;;;;;;;;;;5120778;28;20201;-68
2023/10/24 03:59:57;;;;;;;1.30;0.40;;;;;;;;;;5120414;28;20056;-69
2023/10/24 04:02:24;;;;;;;1.13;0.38;;;;;;;;;;5120692;28;20110;-68
2023/10/24 04:04:51;;;;;;;0.80;0.65;;;;;;;;;;5120303;28;20089;-69
2023/10/24 04:07:19;;;;;;;0.55;0.45;;;;;;;;;;5120369;28;20043;-69
2023/10/24 04:09:46;;;;;;;0.88;0.40;;;;;;;;;;5119841;28;20242;-68
2023/10/24 04:12:13;;;;;;;1.30;0.47;;;;;;;;;;5120478;28;20043;-69
2023/10/24 04:14:39;;;;;;;3.13;0.65;;;;;;;;;;5120304;28;20332;-68
2023/10/24 04:17:06;;;;;;;0.70;0.32;;;;;;;;;;5102262;28;20058;-68
2023/10/24 04:19:34;;;;;;;2.58;0.50;;;;;;;;;;5102415;28;20089;-69
2023/10/24 04:22:02;;;;;;;0.98;0.47;;;;;;;;;;5102039;28;20044;-69
2023/10/24 04:24:29;;;;;;;1.92;0.50;;;;;;;;;;5120010;28;20047;-69
2023/10/24 04:26:55;;;;;;;1.50;0.57;;;;;;;;;;5120461;28;20047;-69
2023/10/24 04:29:22;;;;;;;0.70;0.40;;;;;;;;;;5120109;28;20244;-68
2023/10/24 04:31:49;;;;;;;0.93;0.30;;;;;;;;;;5104660;28;20044;-68
2023/10/24 04:34:16;;;;;;;0.88;0.35;;;;;;;;;;5099634;28;20043;-68
2023/10/24 04:36:43;;;;;;;0.98;0.50;;;;;;;;;;5099786;28;20050;-68
2023/10/24 04:39:09;;;;;;;0.90;0.50;;;;;;;;;;5099661;28;20109;-69
2023/10/24 04:41:37;;;;;;;1.00;0.47;;;;;;;;;;5099840;28;20044;-68
2023/10/24 04:44:05;;;;;;;1.23;0.50;;;;;;;;;;5099602;28;20044;-69
2023/10/24 04:46:32;;;;;;;1.40;0.50;;;;;;;;;;5099762;28;20352;-69
2023/10/24 04:48:59;;;;;;;1.55;0.40;;;;;;;;;;5099330;28;20054;-69
2023/10/24 04:51:25;;;;;;;1.15;0.60;;;;;;;;;;5099319;28;20044;-70
2023/10/24 04:53:52;;;;;;;1.45;0.32;;;;;;;;;;5099540;28;20107;-68
2023/10/24 04:56:19;;;;;;;2.47;0.40;;;;;;;;;;5099673;28;20078;-69
2023/10/24 04:58:45;;;;;;;2.92;0.50;;;;;;;;;;5099440;28;20052;-70
2023/10/24 05:01:12;;;;;;;0.57;0.50;;;;;;;;;;5099634;28;20089;-68
2023/10/24 05:03:39;;;;;;;0.98;0.43;;;;;;;;;;5099580;28;20089;-71
2023/10/24 05:06:05;;;;;;;0.98;0.50;;;;;;;;;;5102557;28;20269;-69
2023/10/24 05:08:32;;;;;;;0.47;0.45;;;;;;;;;;5103252;28;20081;-68
2023/10/24 05:10:59;;;;;;;1.65;0.55;;;;;;;;;;5103687;28;20044;-68
2023/10/24 05:13:26;;;;;;;1.77;0.40;;;;;;;;;;5103292;28;20048;-68
2023/10/24 05:15:52;;;;;;;1.83;0.40;;;;;;;;;;5103383;28;20124;-68
2023/10/24 05:18:19;;;;;;;0.43;0.30;;;;;;;;;;5102887;28;20048;-68
2023/10/24 05:20:46;;;;;;;0.98;0.50;;;;;;;;;;5103117;28;20050;-68
2023/10/24 05:23:13;;;;;;;0.35;0.30;;;;;;;;;;5102645;28;20326;-68
2023/10/24 05:25:41;;;;;;;0.45;0.35;;;;;;;;;;5102935;28;20193;-68
2023/10/24 05:28:10;;;;;;;0.77;0.40;;;;;;;;;;5102860;28;20044;-69
2023/10/24 05:30:38;;;;;;;0.55;0.30;;;;;;;;;;5102691;28;20344;-69
2023/10/24 05:33:05;;;;;;;0.40;0.38;;;;;;;;;;5103091;28;20062;-69
2023/10/24 05:35:32;;;;;;;1.25;0.50;;;;;;;;;;5103028;28;20048;-69
2023/10/24 05:37:59;;;;;;;0.60;0.30;;;;;;;;;;5102428;28;20044;-68
2023/10/24 05:40:26;;;;;;;0.90;0.30;;;;;;;;;;5102673;28;20048;-70
2023/10/24 05:42:52;;;;;;;0.82;0.32;;;;;;;;;;5103017;28;20140;-70
2023/10/24 05:45:21;;;;;;;0.30;0.25;;;;;;;;;;5102845;28;20074;-70
2023/10/24 05:47:48;;;;;;;0.88;0.30;;;;;;;;;;5102679;28;20044;-70
2023/10/24 05:50:17;;;;;;;0.63;0.30;;;;;;;;;;5102560;28;20059;-70
2023/10/24 05:52:43;;;;;;;0.80;0.50;;;;;;;;;;5102392;28;20090;-69
2023/10/24 05:55:10;;;;;;;0.47;0.20;;;;;;;;;;5101991;28;20066;-70
2023/10/24 05:57:37;;;;;;;0.38;0.22;;;;;;;;;;5102683;28;20044;-69
2023/10/24 06:00:05;;;;;;;0.63;0.28;;;;;;;;;;5102285;28;20067;-70
2023/10/24 06:02:31;;;;;;;1.00;0.20;;;;;;;;;;5102516;28;20040;-69
2023/10/24 06:04:58;;;;;;;0.47;0.22;;;;;;;;;;5101705;28;20368;-69
2023/10/24 06:07:25;;;;;;;0.30;0.20;;;;;;;;;;5102133;28;20050;-69
2023/10/24 06:09:52;;;;;;;1.25;0.50;;;;;;;;;;5101745;28;20052;-69
2023/10/24 06:12:19;;;;;;;0.52;0.30;;;;;;;;;;5102387;28;20115;-69
2023/10/24 06:14:45;;;;;;;0.68;0.30;;;;;;;;;;5102034;28;20236;-70
2023/10/24 06:17:17;;;;;;;0.30;0.20;;;;;;;;;;5101635;28;20096;-69
2023/10/24 06:19:46;;;;;;;1.38;0.22;;;;;;;;;;5102186;28;20098;-70
2023/10/24 06:22:13;;;;;;;1.10;0.30;;;;;;;;;;5101561;28;20044;-70
2023/10/24 06:24:39;;;;;;;1.00;0.47;;;;;;;;;;5101371;28;20067;-70
2023/10/24 06:27:10;;;;;;;0.52;0.20;;;;;;;;;;5096298;28;20075;-69
2023/10/24 06:29:37;;;;;;;0.98;0.50;;;;;;;;;;5090438;28;20052;-68
2023/10/24 06:32:04;;;;;;;0.40;0.20;;;;;;;;;;5095745;28;20111;-70
2023/10/24 06:34:31;;;;;;;0.75;0.28;;;;;;;;;;5084051;28;20044;-69
2023/10/24 06:36:58;;;;;;;0.60;0.28;;;;;;;;;;5101761;28;20044;-70
2023/10/24 06:39:25;;;;;;;0.45;0.22;;;;;;;;;;5101540;28;20044;-69
2023/10/24 06:41:55;;;;;;;0.17;0.17;;;;;;;;;;5101912;28;20097;-70
2023/10/24 06:44:22;;;;;;;0.22;0.20;;;;;;;;;;5081160;28;20070;-70
2023/10/24 06:46:52;;;;;;;2.00;0.20;;;;;;;;;;5101846;28;20044;-72
2023/10/24 06:49:18;;;;;;;1.45;0.30;;;;;;;;;;5101169;28;20069;-69
2023/10/24 06:51:45;;;;;;;1.42;0.30;;;;;;;;;;5101263;28;20367;-70
2023/10/24 06:54:12;;;;;;;0.80;0.40;;;;;;;;;;5101083;28;20058;-70
2023/10/24 06:56:38;;;;;;;0.50;0.30;;;;;;;;;;5101345;28;20076;-70
2023/10/24 06:59:05;;;;;;;1.40;0.40;;;;;;;;;;5101625;28;20094;-69
2023/10/24 07:01:32;;;;;;;0.73;0.20;;;;;;;;;;5109954;28;20102;-68
2023/10/24 07:04:00;;;;;;;1.80;0.50;;;;;;;;;;5103378;28;20354;-69
2023/10/24 07:06:27;;;;;;;0.52;0.35;;;;;;;;;;5117079;28;20093;-69
2023/10/24 07:08:53;;;;;;;2.60;0.30;;;;;;;;;;5113140;28;20051;-69
2023/10/24 07:11:21;;;;;;;1.05;0.50;;;;;;;;;;5101232;28;20051;-69
2023/10/24 07:13:47;;;;;;;2.08;0.60;;;;;;;;;;5101462;28;20079;-70
2023/10/24 07:16:15;;;;;;;0.88;0.40;;;;;;;;;;5101331;28;20115;-70
2023/10/24 07:18:42;;;;;;;1.05;0.60;;;;;;;;;;5119188;28;20248;-70
2023/10/24 07:21:10;;;;;;;1.92;0.60;;;;;;;;;;5121138;28;20078;-70
2023/10/24 07:23:38;;;;;;;0.80;0.50;;;;;;;;;;5120581;28;20461;-69
2023/10/24 07:26:05;;;;;;;1.55;0.50;;;;;;;;;;5117837;28;20050;-69
2023/10/24 07:28:31;;;;;;;3.10;0.63;;;;;;;;;;5117974;28;20048;-69
2023/10/24 07:30:58;;;;;;;0.93;0.45;;;;;;;;;;5115730;28;20048;-69
2023/10/24 07:33:25;;;;;;;0.68;0.35;;;;;;;;;;5116717;28;20085;-69
2023/10/24 07:35:52;;;;;;;1.02;0.45;;;;;;;;;;5121364;28;20231;-69
2023/10/24 07:38:19;;;;;;;0.75;0.30;;;;;;;;;;5118018;28;20066;-69
2023/10/24 07:40:47;;;;;;;0.50;0.30;;;;;;;;;;5120852;28;20111;-69
2023/10/24 07:43:14;;;;;;;0.50;0.30;;;;;;;;;;5111746;28;20107;-70
2023/10/24 07:45:41;;;;;;;1.23;0.35;;;;;;;;;;5101432;28;20060;-69
2023/10/24 07:48:07;;;;;;;0.90;0.43;;;;;;;;;;5114133;28;20043;-68
2023/10/24 07:50:34;;;;;;;0.82;0.43;;;;;;;;;;5114640;28;20059;-69
2023/10/24 07:53:01;;;;;;;0.57;0.40;;;;;;;;;;5097173;28;20122;-69
2023/10/24 07:55:28;;;;;;;0.80;0.45;;;;;;;;;;5093705;28;20044;-68
2023/10/24 07:57:55;;;;;;;1.17;0.50;;;;;;;;;;5089649;28;20577;-69
2023/10/24 08:00:21;;;;;;;0.82;0.40;;;;;;;;;;5105742;28;20044;-68
2023/10/24 08:02:48;;;;;;;0.57;0.40;;;;;;;;;;5119666;28;20328;-69
2023/10/24 08:05:15;;;;;;;0.32;0.30;;;;;;;;;;5118521;28;20100;-69
2023/10/24 08:07:41;;;;;;;2.08;0.55;;;;;;;;;;5118107;28;20075;-69
2023/10/24 08:10:09;;;;;;;1.33;0.25;;;;;;;;;;5116902;28;20353;-68
2023/10/24 08:12:35;;;;;;;1.67;0.40;;;;;;;;;;5113706;28;20048;-69
2023/10/24 08:15:03;;;;;;;0.70;0.30;;;;;;;;;;5112219;28;20053;-69
2023/10/24 08:17:30;;;;;;;0.75;0.47;;;;;;;;;;5091869;28;20055;-68
2023/10/24 08:19:57;;;;;;;0.70;0.38;;;;;;;;;;5088242;28;20052;-74
2023/10/24 08:22:24;;;;;;;1.13;0.40;;;;;;;;;;5093706;28;20052;-68
2023/10/24 08:24:51;;;;;;;1.42;0.70;;;;;;;;;;5097123;28;20127;-69
2023/10/24 08:27:17;;;;;;;0.93;0.40;;;;;;;;;;5109981;28;20116;-68
2023/10/24 08:29:44;;;;;;;0.30;0.30;;;;;;;;;;5093798;28;20044;-68
2023/10/24 08:32:11;;;;;;;0.52;0.40;;;;;;;;;;5100820;28;20044;-69
2023/10/24 08:34:41;;;;;;;1.17;0.65;;;;;;;;;;5113489;28;20111;-69
2023/10/24 08:37:08;;;;;;;1.20;0.60;;;;;;;;;;5120515;28;20043;-69
2023/10/24 08:39:35;;;;;;;0.73;0.40;;;;;;;;;;5122468;28;20044;-69
2023/10/24 08:42:02;;;;;;;1.02;0.40;;;;;;;;;;5103782;28;20313;-69
2023/10/24 08:44:30;;;;;;;0.52;0.38;;;;;;;;;;5103997;28;20048;-69
2023/10/24 08:46:57;;;;;;;1.67;0.40;;;;;;;;;;5104098;28;20080;-69
2023/10/24 08:49:24;;;;;;;1.75;0.50;;;;;;;;;;5103839;28;20044;-71
2023/10/24 08:51:51;;;;;;;1.10;0.40;;;;;;;;;;5121998;28;20050;-70
2023/10/24 08:54:18;;;;;;;1.77;0.40;;;;;;;;;;5114531;28;20082;-69
2023/10/24 08:56:45;;;;;;;1.40;0.40;;;;;;;;;;5114075;28;20618;-69
2023/10/24 08:59:13;;;;;;;1.17;0.70;;;;;;;;;;5095428;28;20111;-69
2023/10/24 09:01:41;;;;;;;0.35;0.25;;;;;;;;;;5098540;28;20064;-70
2023/10/24 09:04:08;;;;;;;1.42;0.50;;;;;;;;;;5094089;28;20438;-69
2023/10/24 09:06:36;;;;;;;1.42;0.50;;;;;;;;;;5101097;28;20358;-69
2023/10/24 09:09:04;;;;;;;1.45;0.43;;;;;;;;;;5091913;28;20048;-69
2023/10/24 09:12:05;;;;;;;0.82;0.47;;;;;;;;;;5094889;28;20074;-70
2023/10/24 09:14:32;;;;;;;2.25;0.63;;;;;;;;;;5092359;28;20448;-69
2023/10/24 09:17:15;;;;;;;1.60;0.57;;;;;;;;;;5100550;28;20083;-69
2023/10/24 09:19:43;;;;;;;1.10;0.50;;;;;;;;;;5085373;28;20228;-70
2023/10/24 09:22:15;;;;;;;1.60;0.70;;;;;;;;;;5103043;28;20232;-69
2023/10/24 09:24:46;;;;;;;0.70;0.60;;;;;;;;;;5112621;28;20384;-69
2023/10/24 09:27:14;;;;;;;;;;;;;;;;;;5123596;28;20232;-68
2023/10/24 09:29:41;;;;;;;1.02;0.50;;;;;;;;;;5105269;28;19915;-69
2023/10/24 09:32:15;;;;;;;0.50;0.40;;;;;;;;;;5123583;28;20044;-69
2023/10/24 09:34:43;;;;;;;1.42;0.60;;;;;;;;;;5120636;28;20043;-69
2023/10/24 09:37:13;;;;;;;1.05;0.65;;;;;;;;;;5123667;28;20047;-68
2023/10/24 09:39:56;;;;;;;0.70;0.50;;;;;;;;;;5122950;28;20048;-70
2023/10/24 09:42:26;;;;;;;1.05;0.40;;;;;;;;;;5123187;28;20239;-69
2023/10/24 09:45:06;;;;;;;1.08;0.50;;;;;;;;;;5123424;28;20055;-69
2023/10/24 09:47:35;;;;;;;1.08;0.80;;;;;;;;;;5122825;28;20043;-69
2023/10/24 09:50:04;;;;;;;0.52;0.47;;;;;;;;;;5122335;28;20388;-68
2023/10/24 09:52:31;;;;;;;1.33;0.60;;;;;;;;;;5122605;28;20047;-69
2023/10/24 09:54:58;;;;;;;1.90;0.60;;;;;;;;;;5122752;28;20043;-70
2023/10/24 09:57:27;;;;;;;3.10;0.80;;;;;;;;;;5123078;28;20293;-69
2023/10/24 09:59:58;;;;;;;2.05;0.60;;;;;;;;;;5123072;28;20078;-69
2023/10/24 10:02:25;;;;;;;1.15;0.50;;;;;;;;;;5122932;28;20050;-69
2023/10/24 10:04:52;;;;;;;1.05;0.57;;;;;;;;;;5122723;28;20043;-69
2023/10/24 10:07:21;;;;;;;2.63;0.80;;;;;;;;;;5121872;28;20048;-69
2023/10/24 10:09:51;;;;;;;2.65;0.68;;;;;;;;;;5121954;28;20047;-72
2023/10/24 10:12:18;;;;;;;3.65;0.70;;;;;;;;;;5122359;28;20075;-70
2023/10/24 10:15:11;;;;;;;3.80;0.60;;;;;;;;;;5121758;28;20388;-70
2023/10/24 10:17:49;;;;;;;1.45;0.60;;;;;;;;;;5122200;28;20146;-69
2023/10/24 10:20:42;;;;;;;1.48;0.60;;;;;;;;;;5122141;28;20054;-69
2023/10/24 10:23:15;;;;;;;1.17;0.52;;;;;;;;;;5121849;28;20119;-69
2023/10/24 10:25:54;;;;;;;3.70;0.60;;;;;;;;;;5122419;28;20047;-69
2023/10/24 10:28:52;;;;;;;0.50;0.43;;;;;;;;;;5122279;28;20046;-70
2023/10/24 10:31:42;;;;;;;1.05;0.50;;;;;;;;;;5122402;28;20110;-69
2023/10/24 10:34:34;;;;;;;0.28;0.28;;;;;;;;;;5117601;28;20032;-69
2023/10/24 10:37:01;;;;;;;0.93;0.40;;;;;;;;;;5121144;28;20048;-69
2023/10/24 10:39:29;;;;;;;0.40;0.30;;;;;;;;;;5121662;28;20071;-68
2023/10/24 10:41:56;;;;;;;0.55;0.35;;;;;;;;;;5115218;28;20107;-68
2023/10/24 10:44:40;;;;;;;2.35;0.50;;;;;;;;;;5105226;28;20084;-68
2023/10/24 10:47:18;;;;;;;1.05;0.40;;;;;;;;;;5102795;28;20239;-69
2023/10/24 10:49:48;;;;;;;1.00;0.50;;;;;;;;;;5115332;28;20248;-68
2023/10/24 10:52:43;;;;;;;0.63;0.35;;;;;;;;;;5103680;28;20360;-69
2023/10/24 10:55:33;;;;;;;5.75;0.50;;;;;;;;;;5121354;28;20142;-71
2023/10/24 10:58:15;;;;;;;1.45;0.63;;;;;;;;;;5121662;28;20044;-68
2023/10/24 11:00:58;;;;;;;1.25;0.40;;;;;;;;;;5121656;28;20346;-69
2023/10/24 11:03:27;;;;;;;1.80;0.40;;;;;;;;;;5122164;28;20270;-71
2023/10/24 11:05:54;;;;;;;1.33;0.43;;;;;;;;;;5122049;28;20064;-73
2023/10/24 11:08:23;;;;;;;1.33;0.65;;;;;;;;;;5119950;28;20051;-70
2023/10/24 11:10:52;;;;;;;1.38;0.70;;;;;;;;;;5121317;28;20540;-71
2023/10/24 11:13:34;;;;;;;1.42;0.45;;;;;;;;;;5121030;28;20036;-70
2023/10/24 11:16:03;;;;;;;1.73;0.70;;;;;;;;;;5103019;28;20036;-69
2023/10/24 11:18:31;;;;;;;1.60;0.60;;;;;;;;;;5100774;28;20078;-71
2023/10/24 11:20:58;;;;;;;1.52;0.60;;;;;;;;;;5100778;28;20296;-71
2023/10/24 11:23:26;;;;;;;2.22;0.57;;;;;;;;;;5100397;28;20115;-71
2023/10/24 11:25:54;;;;;;;1.45;0.60;;;;;;;;;;5121026;28;20058;-72
2023/10/24 11:28:25;;;;;;;1.80;0.65;;;;;;;;;;5120998;28;20118;-71
2023/10/24 11:30:51;;;;;;;2.08;0.60;;;;;;;;;;5120870;28;20047;-70
2023/10/24 11:33:18;;;;;;;1.05;0.50;;;;;;;;;;5121233;28;20044;-71
2023/10/24 11:35:46;;;;;;;2.92;0.70;;;;;;;;;;5115542;28;20089;-71
2023/10/24 11:38:16;;;;;;;1.00;0.68;;;;;;;;;;5120098;28;20059;-69
2023/10/24 11:40:46;;;;;;;;;;;;;;;;;;5120745;28;20247;-70
2023/10/24 11:43:14;;;;;;;1.10;0.55;;;;;;;;;;5100224;28;19928;-71
2023/10/24 11:45:41;;;;;;;2.70;0.60;;;;;;;;;;5117962;28;20047;-70
2023/10/24 11:48:09;;;;;;;3.05;0.85;;;;;;;;;;5120115;28;20047;-70
2023/10/24 11:50:42;;;;;;;1.67;0.40;;;;;;;;;;5120202;28;20245;-70
2023/10/24 11:53:10;;;;;;;1.60;0.60;;;;;;;;;;5120160;28;20047;-70
2023/10/24 11:55:37;;;;;;;0.95;0.50;;;;;;;;;;5120419;28;20051;-70
2023/10/24 11:58:08;;;;;;;1.65;0.60;;;;;;;;;;5120549;28;20374;-70
2023/10/24 12:00:37;;;;;;;1.48;0.52;;;;;;;;;;5119959;28;20040;-71
2023/10/24 12:03:05;;;;;;;0.82;0.47;;;;;;;;;;5119574;28;20370;-70
2023/10/24 12:05:32;;;;;;;1.85;0.60;;;;;;;;;;5120619;28;20051;-70
2023/10/24 12:08:00;;;;;;;2.45;0.68;;;;;;;;;;5119288;28;20047;-69
2023/10/24 12:10:30;;;;;;;2.20;0.80;;;;;;;;;;5119567;28;20047;-70
2023/10/24 12:13:00;;;;;;;2.38;0.55;;;;;;;;;;5120029;28;20067;-70
2023/10/24 12:15:27;;;;;;;1.30;0.57;;;;;;;;;;5109204;28;20234;-70
2023/10/24 12:17:54;;;;;;;1.00;0.50;;;;;;;;;;5110707;28;20055;-70
2023/10/24 12:20:20;;;;;;;3.17;0.70;;;;;;;;;;5113001;28;20043;-71
2023/10/24 12:22:48;;;;;;;1.35;0.40;;;;;;;;;;5098842;28;20055;-70
2023/10/24 12:25:17;;;;;;;1.10;0.60;;;;;;;;;;5113516;28;20044;-70
2023/10/24 12:27:45;;;;;;;1.00;0.50;;;;;;;;;;5118797;28;20051;-70
2023/10/24 12:30:15;;;;;;;1.58;0.70;;;;;;;;;;5119769;28;20062;-70
2023/10/24 12:32:42;;;;;;;1.77;0.60;;;;;;;;;;5112822;28;20052;-71
2023/10/24 12:35:09;;;;;;;1.48;0.68;;;;;;;;;;5098562;28;20050;-73
2023/10/24 12:37:36;;;;;;;1.10;0.60;;;;;;;;;;5099355;28;20052;-73
2023/10/24 12:40:04;;;;;;;3.60;0.75;;;;;;;;;;5099359;28;20106;-75
2023/10/24 12:42:32;;;;;;;1.00;0.55;;;;;;;;;;5081753;28;20052;-74
2023/10/24 12:45:06;;;;;;;1.20;0.60;;;;;;;;;;5099214;28;20048;-71
2023/10/24 12:47:33;;;;;;;0.75;0.50;;;;;;;;;;5099247;28;20386;-72
2023/10/24 12:50:07;;;;;;;1.60;0.50;;;;;;;;;;5102762;28;20048;-73
2023/10/24 12:52:37;;;;;;;1.88;0.40;;;;;;;;;;5119725;28;20051;-74
2023/10/24 12:55:07;;;;;;;0.88;0.40;;;;;;;;;;5119423;28;20075;-72
2023/10/24 12:57:33;;;;;;;1.23;0.40;;;;;;;;;;5117839;28;20067;-71
2023/10/24 13:00:00;;;;;;;0.95;0.40;;;;;;;;;;5119803;28;20103;-70
2023/10/24 13:02:27;;;;;;;1.70;0.45;;;;;;;;;;5119404;28;20111;-72
2023/10/24 13:04:53;;;;;;;0.95;0.40;;;;;;;;;;5119777;28;20107;-72
2023/10/24 13:07:20;;;;;;;1.23;0.47;;;;;;;;;;5109068;28;20448;-70
2023/10/24 13:09:47;;;;;;;0.47;0.22;;;;;;;;;;5103344;28;20256;-70
2023/10/24 13:12:13;;;;;;;0.50;0.30;;;;;;;;;;5098740;28;20063;-70
2023/10/24 13:14:40;;;;;;;0.77;0.30;;;;;;;;;;5118292;28;20074;-70
2023/10/24 13:17:07;;;;;;;1.45;0.40;;;;;;;;;;5119390;28;20055;-70
2023/10/24 13:19:37;;;;;;;0.68;0.40;;;;;;;;;;5119568;28;20051;-69
2023/10/24 13:22:05;;;;;;;1.05;0.45;;;;;;;;;;5100772;28;20044;-69
2023/10/24 13:24:32;;;;;;;2.80;0.65;;;;;;;;;;5118904;28;20048;-69
2023/10/24 13:27:00;;;;;;;1.33;0.40;;;;;;;;;;5108185;28;20043;-69
2023/10/24 13:29:26;;;;;;;1.90;0.50;;;;;;;;;;5123407;28;20043;-70
2023/10/24 13:31:56;;;;;;;1.48;0.35;;;;;;;;;;5122549;28;20059;-69
2023/10/24 13:34:23;;;;;;;1.08;0.30;;;;;;;;;;5123009;28;20114;-69
2023/10/24 13:36:56;;;;;;;1.05;0.40;;;;;;;;;;5123045;28;20048;-70
2023/10/24 13:39:23;;;;;;;0.38;0.22;;;;;;;;;;5122642;28;20199;-70
2023/10/24 13:41:50;;;;;;;0.77;0.40;;;;;;;;;;5109713;28;20070;-69
2023/10/24 13:44:16;;;;;;;2.28;0.40;;;;;;;;;;5123110;28;20050;-71
2023/10/24 13:46:43;;;;;;;1.00;0.50;;;;;;;;;;5117993;28;20043;-70
2023/10/24 13:49:10;;;;;;;2.05;0.30;;;;;;;;;;5114160;28;20043;-70
2023/10/24 13:51:36;;;;;;;1.65;0.43;;;;;;;;;;5122289;28;20100;-70
2023/10/24 13:54:04;;;;;;;1.83;0.60;;;;;;;;;;5104435;28;20043;-69
2023/10/24 13:56:34;;;;;;;1.90;0.63;;;;;;;;;;5102477;28;20050;-70
2023/10/24 13:59:01;;;;;;;0.57;0.40;;;;;;;;;;5102403;28;20111;-71
2023/10/24 14:01:28;;;;;;;0.68;0.30;;;;;;;;;;5101919;28;20040;-69
2023/10/24 14:03:55;;;;;;;2.20;0.40;;;;;;;;;;5111570;28;20073;-72
2023/10/24 14:06:22;;;;;;;2.80;0.43;;;;;;;;;;5122091;28;20239;-70
2023/10/24 14:08:49;;;;;;;1.85;0.30;;;;;;;;;;5119596;28;20377;-69
2023/10/24 14:11:16;;;;;;;1.42;0.30;;;;;;;;;;5121378;28;20293;-70
2023/10/24 14:13:43;;;;;;;0.75;0.30;;;;;;;;;;5121379;28;20054;-70
2023/10/24 14:16:10;;;;;;;0.38;0.20;;;;;;;;;;5122258;28;20044;-69
2023/10/24 14:18:37;;;;;;;0.20;0.20;;;;;;;;;;5117907;28;20056;-71
2023/10/24 14:21:04;;;;;;;1.42;0.40;;;;;;;;;;5111633;28;20107;-71
2023/10/24 14:23:31;;;;;;;0.75;0.40;;;;;;;;;;5121202;28;20087;-70
2023/10/24 14:26:01;;;;;;;0.98;0.30;;;;;;;;;;5102362;28;20047;-71
2023/10/24 14:28:28;;;;;;;1.90;0.50;;;;;;;;;;5101787;28;20044;-69
2023/10/24 14:30:55;;;;;;;0.43;0.30;;;;;;;;;;5101355;28;20044;-69
2023/10/24 14:33:22;;;;;;;1.13;0.30;;;;;;;;;;5100887;28;20058;-68
2023/10/24 14:35:49;;;;;;;2.80;0.50;;;;;;;;;;5101022;28;20063;-68
2023/10/24 14:38:15;;;;;;;0.32;0.22;;;;;;;;;;5099394;28;20072;-68
2023/10/24 14:40:43;;;;;;;1.08;0.35;;;;;;;;;;5101606;28;20044;-68
2023/10/24 14:43:10;;;;;;;3.05;0.45;;;;;;;;;;5100952;28;20232;-68
2023/10/24 14:45:40;;;;;;;0.50;0.30;;;;;;;;;;5101269;28;20118;-68
2023/10/24 14:48:07;;;;;;;1.25;0.35;;;;;;;;;;5100914;28;20107;-68
2023/10/24 14:50:34;;;;;;;0.63;0.30;;;;;;;;;;5106391;28;20040;-68